Below are any New Mexico statewide conventional or trunking systems followed by New Mexico police frequencies sorted by county. KMSO Airport Info (Airnav.com), Emergency/Guard: 121.500Great Falls Radio Miller Peak RCO: 122.450Minuteman Jet Center Unicom: 122.950Missoula Ground/Clearance Delivery: 121.900Missoula International Airport Operations: 155.820Missoula International Airport Operations: 154.965Missoula Tower: 118.400Northstar Unicom: 123.300Salt Lake Center: 132.400Salt Lake City Center: 133.400Seattle Center (Mullan Pass RCAG): 128.450Spokane Approach/Departure: 124.900, KMTJ CTAF/ZDV/Guard (Archives)Montrose, Colorado, United States, Feed Status: UP (launches your MP3 player) (in browser, HTML5) (launches your MP3 player) KHUF 271753Z 05010KT 10SM OVC018 M01/M04 A3023 RMK AO2 SLP244 T10061039 11006 21017 58007 $ (in browser, HTML5) (launches your MP3 player) KGSO Airport Info (Airnav.com), Atlanta Center (Sector 29 LEEON/Low): 128.800, ZTL Sector 29/33 (Archives)Greensboro, North Carolina, United States, Atlanta Center (Sector 29 LEEON/Low): 128.800Atlanta Center (Sector 33 Charlotte/High): 124.425, ZTL Sector 33 (Archives)Greensboro, North Carolina, United States, Atlanta Center (Sector 33 Charlotte/High): 124.425, ZTL Atlanta Ctr (Sector 38 N Dep) (Archives)Atlanta, Georgia, United States, Feed Status: UP (launches your MP3 player) KTUS 271753Z 12021G32KT 10SM CLR 10/M03 A3024 RMK AO2 PK WND 13036/1732 SLP233 T01001028 10100 20011 50002 (in browser, HTML5) KTRK 271445Z 20018G16KT 02SM -SN BKN014 OVC025 M01/M04 A2966 (launches your MP3 player) KMJX Airport Info (Airnav.com), Washington Center Sector 58 Coyle: 121.025, ZNY ATL86 Sector (Archives)Toms River, New Jersey, United States, New York Center (Sector 86 Oceanic): 133.500, ZNY Sector 66 MANTA (Archives)Toms River, New Jersey, United States, New York Center (Sector 66 MANTA): 128.300, ZDC Washington Ctr (Bay Sector) (Archives)Martinsburg, West Virginia, United States, Feed Status: UP Interesting Recordings KCVG Airport Info (Airnav.com), Indianapolis Center (Sector 76 Batesville Ultra Hi): 134.700, KCYS Gnd/Twr/App/Center (Archives)Cheyenne, Wyoming, United States, Feed Status: UP ATC Audio Archives (launches your MP3 player) (in browser, HTML5) KGMU Airport Info (Airnav.com), Atlanta Center (Sector 31 UNARM Low): 135.350, ZTL Atlanta Center (Sector 32) (Archives)Greer, South Carolina, United States, Atlanta Center (Sector 32 Spartanburg High): 125.625, ZAU Sector 22 (Archives)Grand Rapids, Michigan, United States, Feed Status: UP KMDT Airport Info (Airnav.com), New York Center (Sector 08 BRNAN Super Hi (FL330/above): 124.775, ZNY New York Center Sector 10 (Archives)Harrisburg, Pennsylvania, United States, New York Center (Sector 10 Harrisburg High): 133.475, ZNY New York Center Sector 26 (Archives)Harrisburg, Pennsylvania, United States, New York Center Sector 26 Lancaster Low: 120.025, ZNY New York Center Sector 27 (Archives)Harrisburg, Pennsylvania, United States, New York Center (Sector 27 Middletown Low): 132.200, ZME Memphis RCAG (Archives)Memphis, Tennessee, United States, Feed Status: UP PAHO Airport Info (Airnav.com), ZAN Anchorage Ctr (Homer/High) (Archives)Homer, Alaska, United States, Anchorage Center (Homer, High): 133.800Anchorage Center (Sector 63/69): 134.550Anchorage Center (Sector 63/69): 133.050Anchorage Center (Sector 63/69): 127.500Anchorage Center (Sector 63/69): 127.600Anchorage Center (Sector 63/69): 133.800Anchorage Center (Sector 63/69): 125.950Anchorage Center (Sector 68): 127.300Anchorage Center (Sector 68): 120.550Anchorage Center (Sector 68): 124.050, PASC CTAF/Unicom/AFIS/App (Archives)Deadhorse, Alaska, United States, Feed Status: UP NOAA Weather Radio, weather radio, weather, severe weather, weather alerts, weather warnings, weather advisories, weather safety KPKB Airport Info (Airnav.com), Indianapolis Center (Sector 24 Parkersburg Low): 125.550, ZAB Albuquerque Center (Prescott) (Archives)Prescott, Arizona, United States, Feed Status: UP (in browser, HTML5) (launches your MP3 player) NOTE FROM TED: Please do not look to this talk for medical advice. (in browser, HTML5) The Albuquerque ARTCC center serves the following states: Arizona; Colorado; New Mexico; Oklahoma; Texas; For frequencies, see the Albuquerque ARTCC DB page; External Links. KSUX 271752Z 09004KT 10SM CLR M09/M14 A3047 RMK AO2 SLP339 T10891139 11089 21111 51013 (in browser, HTML5) (launches your MP3 player) KUNV 271753Z 30009KT 10SM OVC026 M01/M06 A3011 (launches your MP3 player) Both VHF (Civilian) and UHF (Miltiary) Center frequenies are given below. KDEN Airport Info (Airnav.com), Denver Center (Sector 06 Low): 128.650Denver Center (Sector 11 North Low): 120.475Denver Center (Sector 12 Low): 125.350Denver Center (Sector 13 Low): 126.500Denver Center (Sector 15 Low): 118.475Denver Center (Sector 21 Low): 125.900Denver Center (Sector 26 Low): 119.850Denver Center (Sector 36 Low): 118.575, ZDV Denver Center (High North) (Archives)Denver, Colorado, United States, Denver Center (Sector 03 High): 126.725Denver Center (Sector 05 High): 132.850Denver Center (Sector 08 High): 127.025Denver Center (Sector 09 High): 126.325Denver Center (Sector 14 High): 128.325Denver Center (Sector 16 High): 120.575Denver Center (Sector 61 High): 126.875Denver Center (Sector 67 High): 124.225Emergency/Guard: 121.500, ZDV Denver Center (High South) (Archives)Denver, Colorado, United States, Denver Center (Sector 17 High): 127.650Denver Center (Sector 18 Ultra-High): 132.175Denver Center (Sector 29 High): 132.225Denver Center (Sector 39 High): 127.525Denver Center (Sector 46 Ultra-High): 124.775Denver Center (Sector 65 Ultra-High): 127.075Emergency/Guard: 121.500, ZMP Sector 25/DLH ANG (Archives)Duluth, Minnesota, United States, Feed Status: UP (launches your MP3 player) (launches your MP3 player) (in browser, HTML5) (in browser, HTML5) LiveATC FAQ Coverage Map (launches your MP3 player) KPIT Airport Info (Airnav.com), Cleveland Center (Sector 51 Palmer High): 121.075Cleveland Center (Sector 57 Brecksville High): 125.875Cleveland Center (Sector 64 Keystone Ultra High): 134.475, ZID Indy Center (Parkersburg RCAG) (Archives)Parkersburg, West Virginia, United States, Feed Status: UP ZAB covers almost all of Arizona, as well as New Mexico, and parts of Texas. KI35 Airport Info (Airnav.com), Harlan CTAF: 122.800Indy Center (Sector 21 London Low): 121.325Indy Center (Sector 21 London Low): 124.625Indy Center (Sector 25 AZQ Low): 126.575, ZDC Sectors 12/04 (Archives)Leesburg, Virginia, United States, Feed Status: UP KGJT 271753Z 12009KT 10SM CLR M03/M11 A3028 RMK AO2 SLP287 T10281106 11028 21078 51015 (in browser, HTML5) KGRR 271753Z 01010KT 10SM BKN030 BKN120 M03/M09 A3031 RMK AO2 SLP276 4/003 6//// T10331094 11028 21078 $ 36 Radio Frequency jobs available in Albuquerque, NM on Indeed.com. KLAS Airport Info (Airnav.com), Los Angeles Center (Sector 16 High/Low): 124.625, ZLA Sector 34 (High) (Archives)Las Vegas, Nevada, United States, Los Angeles Center (Sector 34 High): 132.625, ZLA LA Center Sectors 04/13/21 (Archives)Los Angeles, California, United States, Feed Status: UP KILM 271806Z 00000KT 9SM -RA FEW009 BKN080 OVC100 12/11 A3007 RMK AO2 P0001 T01220106 If available, see below for a list of known police frequencies for Albuquerque, New Mexico. (launches your MP3 player) KMSO 271753Z 00000KT 10SM OVC090 M06/M10 A2975 RMK AO2 SLP121 I6000 T10561100 11056 21128 53006 KHUL Airport Info (Airnav.com), Boston Center (Sector 01 Millinocket High Sector): 128.050Boston Center (Sector 01 Millinocket High Sector): 319.100Boston Center (Surry 15 Low Sector): 120.250Boston Center (Surry 15 Low Sector): 346.400Boston Center (Surry 15 Low Sector): 124.750Emergency/Guard: 121.500Houlton CTAF/UNICOM: 122.800Presque Isle CTAF/UNICOM: 122.800, KHUL/KPQI/ZBW01/15 (Archives)Presque Isle, Maine, United States, ZBW Boston Center (ACK17) (Archives)Hyannis, Massachusetts, United States, Feed Status: UP KFWA 271754Z 03004KT 10SM OVC011 M04/M07 A3030 RMK AO2 SLP272 T10441072 11039 21061 51005 KACY Airport Info (Airnav.com), Washington Center (Sector 51 Casino Low): 127.700Washington Center (Sector 59 Sea Isle Hi): 133.125, ZBW Boston Center (ALB22) (Archives)Boston, Massachusetts, United States, Feed Status: UP KHDC Airport Info (Airnav.com), Hammond CTAF: 122.700Hammond Ground: 119.850Hammond Tower: 120.575Houston Center (Low): 126.350New Orleans Approach (West): 125.500New Orleans Clearance/Approach: 119.300, ZTL48 Wilkes Sector (Archives)Hickory, North Carolina, United States, Feed Status: UP PHOG 271754Z 07017G24KT 10SM FEW020 SCT050 24/18 A3003 RMK AO2 SLP175 T02390178 10239 20222 51014 KPCW Airport Info (Airnav.com), Cleveland Center (Windsor Low Sector 21): 132.450, ZOB Sector 40 Carlton Low (Archives)Cleveland, Ohio, United States, Cleveland Center (Carlton Low Sector 40): 127.900, ZOB Sector 47 Bluffton Hi (Archives)Cleveland, Ohio, United States, Cleveland Center (Bluffton High Sector 47): 119.325, ZOB Sector 48 Ravenna Hi (Archives)Cleveland, Ohio, United States, Cleveland Center (Ravenna High Sector 48): 119.875, ZAB Sector 38 (Miami Low) (Archives)Phoenix, Arizona, United States, Feed Status: UP Specialties: Residential appliance repair and installation Established in 2018. (in browser, HTML5) KDOV Airport Info (Airnav.com), Washington Center (ZDC19 Woodstown Sector): 125.450Washington Center (ZDC53 Kenton Sector): 132.050, ZDV/ZMP Kearney NE (Archives)Kearney, Nebraska, United States, Feed Status: UP Albuquerque, NM Journal (in browser, HTML5) (in browser, HTML5) In this audio lesson, I give you tips and tricks for finding and selecting the correct ATC enroute center frequency.To make it a little more entertaining, I’ll tell you how I recently screwed up badly, and had to scramble to find the correct center frequency while flying at 37,000 feet at .80 Mach. (launches your MP3 player) Het is hiermee de 32e stad in de Verenigde Staten (2007). Albuquerque Police Frequencies. KCYS 271753Z 18006KT 10SM CLR M06/M12 A3005 RMK AO2 SLP249 I6001 T10561117 11039 21161 51016 KFSD 271756Z 10008KT 10SM FEW065 BKN090 M08/M15 A3043 RMK AO2 SLP334 T10781150 11078 21122 50008 Check out choices for Albuquerque Radio. (launches your MP3 player) Listen to your favorite Albuquerque, United States music for free without registering at Onlineradiobox.com KASE Airport Info (Airnav.com), Aspen Approach/Departure: 123.800Denver Center (Sector 26 POWDR Low): 119.850, ZDV Sector 26 POWDR Low (Archives)Aspen, Colorado, United States, Denver Center (Sector 26 POWDR Low): 119.850, KAUG Portland App/ZBW (Archives)Augusta, Maine, United States, Feed Status: UP Relax and unwind in some of the finest spa days and wellness experiences in Albuquerque. Below is a table which contains Ultra High Altitude, High Altitude, and Low Altitude Center frequencies. KRNO 271755Z 15004KT 10SM FEW035 SCT055 SCT180 03/M03 A2974 RMK SLP071 MTN TOPS OBSCD DSNT SW 4/002 933003 6//// T00281028 10028 2000 53024 KBDN Airport Info (Airnav.com), ZSE Seattle Center (Sector 35) (Archives)Bend, Oregon, United States, KBGR App/Dep (Archives)Bangor, Maine, United States, Feed Status: UP (launches your MP3 player) (launches your MP3 player) KGJT Airport Info (Airnav.com), Denver Approach: 119.700Denver Center (Sector 11 Grand Junction Low): 134.500Grand Junction Ground: 121.700Grand Junction Tower: 118.100, ZTL Atlanta Center (Sector 31) (Archives)Greer, South Carolina, United States, Feed Status: UP (launches your MP3 player) The red lines mark … (launches your MP3 player) KORD Airport Info (Airnav.com), Chicago Center (Sector 81 CRIBB Low): 120.350Emergency/Guard: 121.500, KORK CTAF/ZME (Archives)North Little Rock, Arkansas, United States, Feed Status: UP Above is a map of the Albuquerque Center control area. (in browser, HTML5) To find your local New Mexico police frequencies, navigate to your county and enter the frequencies you find into your police scanner. (launches your MP3 player), Oakland Center (Sector 29 High): 119.750Oakland Center (Sector 32 High) - Cross-coupled: 132.950, ZOA Sector 22 Low (Archives)Oakdale, California, United States, ZOA Sector 32 High (Archives)Oakdale, California, United States, ZOA Sector 34 High (Archives)Oakdale, California, United States, ZAN Anchorage Center (Bethel) (Archives)Bethel, Alaska, United States, Feed Status: UP (in browser, HTML5) : 288.900, ZDC19/53 Kenton/WoodstownDover, Delaware, United States, Feed Status: DOWNOffline since: 2021-01-20 10:36:39 UTCKDOV 261956Z AUTO 04005KT 3SM -DZ BR OVC005 05/05 A2982 RMK AO2 RAE20DZB20 CIG 002 RWY19 SLP101 P0001 T00500050 $ (launches your MP3 player) PASC 271753Z 06011KT 10SM OVC006 M23/M26 A3035 RMK AO2 SLP280 I6001 T12281256 11228 21244 56020 The center frequency represents the midpoint frequency in between the -3dB cutoff frequencies of a bandpass or notch filter. KDBQ Airport Info (Airnav.com), Chicago Center (Sector 76 Arlington Hi FL330-360): 125.225, ZAU Sector 75 #1 (Archives)Dubuque, Iowa, United States, Chicago Center (Sector 75 COTON Hi FL240-320): 127.775, ZAU Sector 63 #1 (Archives)Dubuque, Iowa, United States, Chicago Center (Sector 63 Dubuque Low SFC to FL230): 133.950, ZDV Denver Center (Low) (Archives)Denver, Colorado, United States, Feed Status: UP (in browser, HTML5) KFMH Airport Info (Airnav.com), New York Center (High Oceanic/JOBOC): 125.925, KFSD Twr/App/Dep/ZMP (Archives)Sioux Falls, South Dakota, United States, Feed Status: UP KCDC 271753Z AUTO 23016G23KT 10SM M02/M08 A3012 RMK AO2 SLP222 T10221078 11022 21072 $ LiveATC Mobile PABE 271753Z 04009KT 10SM OVC060 M11/M13 A2987 RMK AO2 SLP119 T11061128 11106 21117 56037 KBDN 271815Z AUTO 00000KT 10SM CLR 02/M06 A2955 RMK AO2 KBGR Airport Info (Airnav.com), Bangor Approach: 118.925Bangor Approach: 124.500, ZBW Sector 15 (BGR Area) (Archives)Bangor, Maine, United States, ZBW Sector 15 Surry Low : 124.250ZBW Sector 15 Surry Low : 120.250, KBJI CTAF/ZMP (Archives)Bemidji, Minnesota, United States, Feed Status: UP KROW Airport Info (Airnav.com), Albuquerque Center (Sector 23 Roswell Low/Hi ): 132.650, ZTL Atlanta Ctr (Sector 49 LOGEN) #2 (Archives)Atlanta, Georgia, United States, Feed Status: UP KILM Airport Info (Airnav.com), Emergency/Guard: 121.500Washington Center (Sector 35 Wilmington High): 269.150Washington Center (Sector 35 Wilmington High): 124.025Wilmington Approach: 317.425Wilmington Approach: 284.650Wilmington Approach: 135.750Wilmington Approach: 118.250Wilmington Ground: 121.900Wilmington Ground: 348.600Wilmington Tower: 239.300Wilmington Tower: 119.900, KIPT Gnd/Twr/ZNY (Archives)Williamsport, Pennsylvania, United States, Feed Status: UP We can ingest expensive supplements and not absorb 50% of them and waste our money. KGVL 271753Z AUTO VRB04KT 10SM CLR 14/08 A3000 RMK AO2 SLP154 60008 T01440083 10144 20094 58016 (launches your MP3 player) (launches your MP3 player) KORD 271823Z 36008KT 10SM OVC016 M03/M08 A3033 RMK AO2 SNB04E18 P0000 T10331078 $ (launches your MP3 player) KVLD Airport Info (Airnav.com), Jacksonville Center (Live Oak MOA): 254.275Jacksonville Center (Moody 1 MOA): 375.825Jacksonville Center (Moody MOA): 281.400Jacksonville Center (Sector 17 Perry High): 135.625Jacksonville Center (Sector 79 Baxly Low): 133.700Jacksonville Center (Sector 79 Baxly Low): 322.550Jacksonville Center (Sector 79 Baxly Low): 323.300Valdosta Approach/Departure: 126.600Valdosta Ground: 121.700Valdosta Tower: 120.900, KVRB App/ZMA (Archives)Vero Beach, Florida, United States, Feed Status: UP KHRO 271753Z AUTO 32009KT 10SM OVC007 M01/M03 A3027 RMK AO2 SLP261 60004 I6000 T10061028 10000 21006 51029 Families will find plenty to do at the Albuquerque Biological Park, which features a zoo, aquarium and botanic garden. Hello, and welcome to the Albuquerque ARTCC! Find spas near you and book effortlessly online with Tripadvisor. Albuquerque Approach/Departure (S of V12): 123.900 Albuquerque Clearance Delivery: 119.200 Albuquerque Tower: 120.300 Albuquerque Tower (South): 123.775 Albuquerque UNICOM: 122.950 ZAB Albuquerque Center Sector 16 SAN-L: 132.800 ZAB Albuquerque Center Sector 17 LAVA-L: 124.325 ZAB Albuquerque Center Sector 94 CNX-LH: 133.650 Each ARTCC (center), due to its size, is divided into sectors. KCDC Airport Info (Airnav.com), Los Angeles Center (Sector 07 Las Vegas Low): 124.200, ZLA Sector 32 (Archives)Cedar City, Utah, United States, Los Angeles Center (Sector 32 Super High): 135.550, ZLA Sector 32/33 (Archives)Cedar City, Utah, United States, Los Angeles Center (Sector 32 Super High): 135.550Los Angeles Center (Sector 33 High): 135.250, ZLA Sector 33 (Archives)Cedar City, Utah, United States, Los Angeles Center (Sector 33 High): 135.250, ZLA Sector 36 (Archives)Cedar City, Utah, United States, Los Angeles Center (Sector 36 High): 127.350, ZLC Sector 44 (Archives)Cedar City, Utah, United States, Salt Lake Center (Sector 44 Low): 125.575, KCEZ CTAF/ZDVCortez, Colorado, United States, Feed Status: DOWNOffline since: 2020-12-18 03:02:39 UTCKCEZ 271753Z AUTO 00000KT 10SM CLR M06/M11 A3032 RMK AO2 SLP314 T10561111 11050 21206 51009 KFYV 271753Z 31009KT 10SM OVC015 M01/M03 A3032 RMK AO2 SLP277 60000 T10061028 10011 21006 51033 ALBUQUERQUE TOWER: 120.3 351.9 123.775. Menu & Reservations Make Reservations . KFMH Airport Info (Airnav.com), ZNY JOBOC SectorFalmouth, Massachusetts, United States, Feed Status: DOWNOffline since: 2021-01-27 18:38:39 UTCKFMH 271745Z 34006KT 7SM BKN005 BKN012 02/02 A2995 KFWA Airport Info (Airnav.com), Chicago Center (Sector 37 Wolf Lake Low SFC to FL230): 119.850, ZAU Sector 36 (Archives)Fort Wayne, Indiana, United States, Chicago Center (Sector 36 Fort Wayne Hi FL240-340): 124.825, ZAU Sector 33 (Archives)Fort Wayne, Indiana, United States, Chicago Center (Sector 33 BURBN Super Hi FL350/above): 126.325, KFYV Gnd/Twr/App/ZME (Archives)Fayetteville, Arkansas, United States, Feed Status: UP KAPN Airport Info (Airnav.com), Alpena Approach/Departure: 128.425Minneapolis Center (Sector 01 Low): 125.475, KASE Approach/Denver Center (Archives)Aspen, Colorado, United States, Feed Status: UP (in browser, HTML5) Or, navigate to another city or town within Bernalillo County, to view the local fire department frequencies. KCIC Airport Info (Airnav.com), Chico CTAF/Tower: 121.000Oakland Center (Sector 42 Low): 132.200, ZID76 Indy Center (Batesville) (Archives)Covington, Kentucky, United States, Feed Status: UP (in browser, HTML5) (in browser, HTML5) KABQ 271752Z 00000KT 10SM CLR M02/M09 A3041 RMK AO2 SLP327 T10171094 11017 21100 51023 (in browser, HTML5) (in browser, HTML5) (launches your MP3 player) (launches your MP3 player) KBDN Airport Info (Airnav.com), ZSE Seattle Center (Sector 05) (Archives)Bend, Oregon, United States, Feed Status: UP If available, see below for a list of known fire department frequencies for Los Ranchos de Albuquerque, New Mexico. KPCW 271815Z AUTO 34004KT 10SM SCT017 M04/M08 A3027 RMK AO2 KI35 271815Z AUTO 36006KT 10SM BKN120 09/02 A3002 RMK AO2 T00940018 Live Audio Norfolk Naval Station Chambers Field (LiveATC.net), Live Audio Oceana Naval Air Station & GIANTKILLER Frequencies (LiveATC.net), ARTCC Overview (ARTCC Frequency Database Last Updated 8/20/2018), United States Thunderbirds 2019 Maneuvers Package for the FAA, United States Air Force Thunderbirds 2020 Support Manual, Photo Gallery of Radio, Military & Space Related Items. (launches your MP3 player) KMRB 271753Z 33013G21KT 10SM OVC034 03/M04 A3010 RMK AO2 SLP197 T00331039 10044 20022 58003 (in browser, HTML5) KPHX 271751Z 07014KT 10SM FEW150 FEW250 11/M01 A3025 RMK AO2 SLP242 T01061011 10106 20039 50001 $ (launches your MP3 player) KBDL Airport Info (Airnav.com), ZBW Boston Center (BOS46 High) #2 (Archives)Boston, Massachusetts, United States, Boston Center (BOS46 High): 118.425Boston Center (BOS46 High): 127.975Boston Center (BOS46 High): 126.225, ZBW Boston Center (BOS47 Low) (Archives)Boston, Massachusetts, United States, Boston Center (Sector 47 BOSOX Low): 133.425, ZBW Boston Center (PVD34 Low) (Archives)Boston, Massachusetts, United States, ZSE Seattle Center (Sector 05)Bend, Oregon, United States, Feed Status: DOWNOffline since: 2019-06-03 16:12:02 UTCKBDN 271815Z AUTO 00000KT 10SM CLR 02/M06 A2955 RMK AO2 KFYV Airport Info (Airnav.com), Drake Ground: 121.800Drake Tower: 128.000Jonesboro Flight Service Station (FSS): 122.300Memphis Center (High): 132.550Memphis Center (High): 353.800Razorback Approach: 121.000, KGJT Gnd/Twr/App/ZDV (Archives)Grand Junction, Colorado, United States, Feed Status: UP Elevated Frequencies Albuquerque NM 87121. KMJX 271756Z AUTO 33008KT 10SM OVC037 03/M04 A3004 RMK AO2 SLP177 T00281044 10039 20011 51007 (in browser, HTML5) KMFD 271752Z 36007KT 10SM OVC011 M03/M05 A3020 RMK AO2 SLP242 T10281050 11022 21028 50002 (in browser, HTML5) (in browser, HTML5) (in browser, HTML5) Website and content © 2001-2020 MilRadioComms.com, Search Military & Civilian Mode-S Hexcode Database, ARINC Enroute Coverage Areas and Frequencies. (launches your MP3 player) KDLH Airport Info (Airnav.com), ANG Command Post: 139.900Minneapolis Center Sector 25 (Low/High): 127.900Minneapolis Center Sector 25 (Low/High): 134.550Minneapolis Center Sector 25 (Low/High): 281.450Minneapolis Center Sector 25 (Low/High): 290.500PTD/ANG Command Post (launches your MP3 player) CLEARANCE DELIVERY: (in browser, HTML5) KCEZ Airport Info (Airnav.com), Cortez CTAF: 122.800Denver Center (Sector 36 Farmington Low): 118.575Emergency/Guard: 121.500, ZDC Sector 2 (Archives)Charlottesville, Virginia, United States, Feed Status: UP (launches your MP3 player) Browse Feeds (launches your MP3 player) KEWR 271751Z 33015KT 10SM FEW030 OVC042 03/M04 A3003 RMK AO2 SLP169 T00281044 10033 20011 51001 KMFD Airport Info (Airnav.com), Cleveland Center (Sector 04 Mansfield Low): 134.900, ZOB Sector 06 Briggs Low (Archives)Mansfield, Ohio, United States, Cleveland Center (Sector 06 Briggs Low): 120.600, ZOB Sector 45 Geauga Ultra Hi (Archives)Mansfield, Ohio, United States, Cleveland Center (Sector 45 Geauga Ultra Hi): 120.325, ZOB Sector 49 Lorain Hi (Archives)Mansfield, Ohio, United States, Cleveland Center (Sector 49 Lorain Hi): 133.375, ZDC Sector 58 Coyle (Archives)Toms River, New Jersey, United States, Feed Status: UP (launches your MP3 player) Audio streams may not be used in any third-party products. KSAN 271751Z 16006KT 10SM FEW120 BKN250 14/02 A3023 RMK AO2 SLP235 T01390017 10139 20061 50006 (launches your MP3 player) KTVC Airport Info (Airnav.com), Traverse City Ground: 121.800Traverse City Tower: 124.200, ZFW Sector 25 (Archives)Tyler, Texas, United States, Feed Status: UP New Mexico Police Frequencies. KABQ - Albuquerque/Sunport International Located in Albuquerque, NM, USA ICAO - KABQ, IATA - ABQ, FAA ID - ABQ KSRQ 271803Z 21008KT 1/2SM HZ 22/19 A3006 RMK AO2 SFC VIS 5 T02220194 $ KBJI Airport Info (Airnav.com), Bemidji CTAF: 122.800Minneapolis Center (Sector 25 Low/High): 134.750, KNEL/KWRI/ZNY (Archives)Lakehurst, New Jersey, United States, Feed Status: UP KGMU 271753Z 26010KT 10SM FEW110 16/09 A3001 RMK AO2 SLP161 60003 T01560089 10161 20106 58005 the Albuquerque Center area. (launches your MP3 player) (in browser, HTML5) KOFF 261956Z 06007KT 10SM SCT017 OVC024 M05/M10 A3012 RMK AO2A SCT V BKN SLP221 T10511103 $ (launches your MP3 player) KROW 271751Z 16005KT 10SM CLR 06/M11 A3038 RMK AO2 SLP280 T00561111 10056 21067 51025 KTUL 271753Z 33008KT 10SM BKN020 OVC025 01/M04 A3041 RMK AO2 SLP304 T00061039 10006 21011 51030 (in browser, HTML5) De oppervlakte bedraagt 467,6 km², waarmee het de 30e stad is. (launches your MP3 player) KEUG Airport Info (Airnav.com), ZNY New York Ctr (DIXIE Low) (Archives)Newark, New Jersey, United States, Feed Status: UP The green line marks the bounderies of (launches your MP3 player) KMDT 271756Z 32012KT 10SM BKN040 04/M05 A3011 RMK AO2 SLP199 T00391050 10050 20028 53004 $ Prohibited, Restricted, Alert Areas, and Warning Areas. (in browser, HTML5) KHKY Airport Info (Airnav.com), Atlanta Center (Sector 48 Wilkes Low): 125.150, KHRO CTAF/ZME/Misc (Archives)Harrison, Arkansas, United States, Feed Status: UP Windows 8/10 KPIT 271751Z 01007KT 10SM OVC024 M02/M07 A3017 RMK AO2 SLP237 T10171072 11017 21028 58002 KOTM Airport Info (Airnav.com), Cedar Rapids Approach: 134.050Cedar Rapids Approach: 119.700Cedar Rapids Clearance Delivery: 125.450Cedar Rapids Tower: 118.700Cedar Rapids UNICOM: 122.950Chicago Center: 118.150Chicago Center (Sector 55 Burlington Low): 135.600Chicago Center (Sector 56 Ottumwa Low SFC to FL230): 132.800Chicago Center (Sector 74 FARMM Low): 133.350Chicago Center (Sector 91 Hanna City Super Hi): 134.325Des Moines Approach: 135.200Des Moines Approach: 123.900Des Moines Approach: 118.600Des Moines Tower: 118.300Emergency/Guard: 121.500Kansas City Center: 132.600KIRK Kirksville, MO CTAF: 122.800Minneapolis Center: 118.825Minneapolis Center (Sector 27 Low): 125.650Minneapolis Center (Sector 30 High): 135.775Ottumwa CTAF/UNICOM: 123.000, ZOB Sector 21 Windsor Low (Archives)Cleveland, Ohio, United States, Feed Status: UP (in browser, HTML5) (launches your MP3 player) (in browser, HTML5) ALBUQUERQUE, N.M. — Any of our readers who have their own police scanners may have noticed silence from those normally chatty devices. KRDM Airport Info (Airnav.com), ZSE Seattle Center (Sector 46)Redmond, Oregon, United States, Seattle Center (Sector 46 High/Low): 121.350, KRIL CTAF/ZDV (Archives)Rifle, Colorado, United States, Feed Status: UP (in browser, HTML5) (in browser, HTML5) KMTJ 271753Z AUTO 31003KT 10SM CLR M06/M13 A3031 RMK AO2 SLP301 T10561128 11056 21150 51008 KMAF Airport Info (Airnav.com), Fort Worth Center (Sector 82 Wink High): 132.075, ZFW Ft Worth Center (Sector 40) #1 (Archives)Midland, Texas, United States, Fort Worth Center (Sector 40 Midland Low): 133.100, ZNY New York Center Sector 8 (Archives)Harrisburg, Pennsylvania, United States, Feed Status: UP The Albuquerque ARTCC is one of 22 Air Route Traffic Control Centers in the United States. The -3dB cutoff points are also referred to as the lower cutoff frequency and upper cutoff frequency of a filter circuit. PHKO Airport Info (Airnav.com), HCF Center (Hamakua Sector): 126.600HCF Center (Northeast Sector): 127.600, HCF Center (PHOG/All) (Archives)Kahului, Hawaii, United States, Feed Status: UP KMTJ Airport Info (Airnav.com), Denver Center (Sector 12 Gunnison Low): 125.350Emergency/Guard: 121.500Montrose CTAF: 122.800, KOFF Gnd/Twr/App/ZMP (Archives)Omaha, Nebraska, United States, Feed Status: UP City of Albuquerque and Bernalillo County Police, Sheriff, and Fire ... SAR Frequencies. KLAX Airport Info (Airnav.com), Los Angeles Center (Sector 04/Low): 125.800Los Angeles Center (Sector 13/Low): 132.600Los Angeles Center (Sector 21/Low): 132.850, ZFW Ft Worth Center (Sector 82) #1 (Archives)Midland, Texas, United States, Feed Status: UP KLAS 271756Z VRB06KT 10SM FEW043 OVC055 06/M02 A3022 RMK AO2 SLP240 VCSH NW-N T00611017 10061 20033 53018 KHKY 271753Z VRB04KT 10SM CLR 14/06 A2999 RMK AO2 SLP143 T01440061 10144 20083 58010 (launches your MP3 player) KFAT Airport Info (Airnav.com), Oakland Center (Sector 15 High): 132.800Oakland Center (Sector 16 Low): 123.800Oakland Center (Sector 16 Low): 353.800Oakland Center (Sector 34 High): 134.375, ZJX Sector 71 Florence Low (Archives)Florence, South Carolina, United States, Feed Status: UP (launches your MP3 player) KFLO 271812Z 18003KT 10SM SCT005 BKN012 OVC100 13/12 A3006 RMK AO2 T01330122 KUNV Airport Info (Airnav.com), University Park Clearance (when Tower closed): 118.550University Park Ground: 119.625University Park Tower: 128.475, ZNY Sector 73 (Archives)State College, Pennsylvania, United States, New York Center (Sector 73 Phillipsburg High): 132.875, KVLD Gnd/Twr/App/Dep/CenterValdosta, Georgia, United States, Feed Status: DOWNOffline since: 2020-12-20 22:50:39 UTCKVLD 271827Z 03009KT 3/4SM +RA BR SCT013 BKN018 OVC027 15/13 A2997 RMK AO2 LTG DSNT SE AND S P0038 T01500133 KALB 271751Z 28011KT 10SM FEW019 BKN024 OVC030 M03/M06 A3006 RMK AO2 SNE29 SLP183 4/005 933004 P0000 60001 T10281056 11022 21050 50008 KPKB 271753Z 04006KT 10SM OVC028 01/M06 A3018 RMK AO2 SLP225 T00111061 10011 20000 58006 ALBUQUERQUE DEPARTURE: 123.9 ;SOUTH OF V12 127.4 ;ON OR NORTH OF V12 253.5 ;ON OR NORTH OF V12 354.1 ;SOUTH OF V12. TJSJ 271756Z 08015KT 10SM FEW044 28/19 A3005 RMK AO2 SLP173 T02830189 10283 20244 58022, New York (San Juan) ARINC: 130.700San Juan Center: 118.150San Juan Center: 134.300San Juan Center: 118.750San Juan Center: 124.225San Juan Center: 135.700, ZNY Bermuda Sector (Archives)Hamilton, Bermuda, Feed Status: UP KTUS Airport Info (Airnav.com), 357FS Ops: 139.725358FS Ops: 138.500Albuquerque Center (Sector 47 Silver City/Low/UHF): 327.150Albuquerque Center (Sector 90 San Simon/High/UHF): 281.500AWACS: 364.200BigFoot: 234.800BigFoot: 271.000Davis-Monthan AFB: 253.500Tucson 162FW SOS IOPS: 392.200Tucson Tower (UHF): 257.800, KTVC Ground/Tower (Archives)Traverse City, Michigan, United States, Feed Status: UP

Maui Weather 10 Day, Sky Bingo Live Chat, Longmire Season 6 Episode 5 Full Cast, Tiger Graphic Tee Amazon, A Dog's Way Home Full Movie, Berkeley Preparatory School Website, Example Of Energy Processing In Biology, Arturia Minibrute Se Vs Minibrute 2, Swordburst 2 Weapons, Motion Tracking Webcam, Best Cinema 4d Tutorials For Beginners,